Time,TemperatureF,DewpointF,PressureIn,WindDirection,WindDirectionDegrees,WindSpeedMPH,WindSpeedGustMPH,Humidity,HourlyPrecipIn,Conditions,Clouds,dailyrainin,SoftwareType,DateUTC
2013-01-25 00:09:00,36.4,20.0,30.28,NE,50,0.0,3.0,51,0.00,,,0.00,weatherlink.com 1.10,2013-01-25 06:09:00,
2013-01-25 00:24:00,36.5,18.0,30.28,ESE,103,0.0,2.0,48,0.00,,,0.00,weatherlink.com 1.10,2013-01-25 06:24:00,
2013-01-25 00:39:00,36.5,18.0,30.27,East,88,0.0,2.0,47,0.00,,,0.00,weatherlink.com 1.10,2013-01-25 06:39:00,
2013-01-25 00:54:00,36.5,17.0,30.27,NNW,327,1.0,3.0,46,0.00,,,0.00,weatherlink.com 1.10,2013-01-25 06:54:00,
2013-01-25 01:09:00,36.4,18.0,30.27,ESE,105,0.0,2.0,47,0.00,,,0.00,weatherlink.com 1.10,2013-01-25 07:09:00,
2013-01-25 01:24:00,36.6,17.0,30.27,SSE,155,0.0,1.0,46,0.00,,,0.00,weatherlink.com 1.10,2013-01-25 07:24:00,
2013-01-25 01:39:00,36.6,18.0,30.27,SE,129,0.0,3.0,47,0.00,,,0.00,weatherlink.com 1.10,2013-01-25 07:39:00,
2013-01-25 01:54:00,36.7,18.0,30.27,North,349,1.0,2.0,47,0.00,,,0.00,weatherlink.com 1.10,2013-01-25 07:54:00,
2013-01-25 02:09:00,36.8,18.0,30.26,SE,138,0.0,3.0,47,0.00,,,0.00,weatherlink.com 1.10,2013-01-25 08:09:00,
2013-01-25 02:24:00,36.8,19.0,30.26,NNW,345,0.0,2.0,48,0.00,,,0.00,weatherlink.com 1.10,2013-01-25 08:24:00,
2013-01-25 02:39:00,36.9,18.0,30.25,East,90,0.0,1.0,46,0.00,,,0.00,weatherlink.com 1.10,2013-01-25 08:39:00,
2013-01-25 02:54:00,36.9,18.0,30.25,ESE,110,0.0,1.0,46,0.00,,,0.00,weatherlink.com 1.10,2013-01-25 08:54:00,
2013-01-25 03:09:00,37.0,19.0,30.25,ENE,57,1.0,1.0,49,0.00,,,0.00,weatherlink.com 1.10,2013-01-25 09:09:00,
2013-01-25 03:24:00,37.1,19.0,30.25,East,91,0.0,2.0,48,0.00,,,0.00,weatherlink.com 1.10,2013-01-25 09:24:00,
2013-01-25 03:39:00,37.3,19.0,30.24,NNE,29,0.0,1.0,48,0.00,,,0.00,weatherlink.com 1.10,2013-01-25 09:39:00,
2013-01-25 03:54:00,37.5,20.0,30.24,NNE,13,1.0,1.0,50,0.00,,,0.00,weatherlink.com 1.10,2013-01-25 09:54:00,
2013-01-25 04:09:00,37.9,21.0,30.24,ENE,70,0.0,2.0,51,0.00,,,0.00,weatherlink.com 1.10,2013-01-25 10:09:00,
2013-01-25 04:24:00,38.1,22.0,30.23,SW,236,0.0,2.0,53,0.00,,,0.00,weatherlink.com 1.10,2013-01-25 10:24:00,
2013-01-25 04:39:00,38.3,24.0,30.23,South,177,0.0,3.0,56,0.00,,,0.00,weatherlink.com 1.10,2013-01-25 10:39:00,
2013-01-25 04:54:00,38.6,24.0,30.23,ENE,64,0.0,3.0,55,0.00,,,0.00,weatherlink.com 1.10,2013-01-25 10:54:00,
2013-01-25 05:09:00,38.9,24.0,30.23,SSE,163,2.0,3.0,56,0.00,,,0.00,weatherlink.com 1.10,2013-01-25 11:09:00,
2013-01-25 05:24:00,39.2,26.0,30.22,South,182,0.0,4.0,59,0.00,,,0.00,weatherlink.com 1.10,2013-01-25 11:24:00,
2013-01-25 05:40:00,39.5,26.0,30.23,South,181,0.0,2.0,59,0.00,,,0.00,weatherlink.com 1.10,2013-01-25 11:40:00,
2013-01-25 05:54:00,39.7,27.0,30.22,SE,142,1.0,4.0,60,0.00,,,0.00,weatherlink.com 1.10,2013-01-25 11:54:00,
2013-01-25 06:10:00,40.1,27.0,30.22,West,277,0.0,4.0,60,0.00,,,0.00,weatherlink.com 1.10,2013-01-25 12:10:00,
2013-01-25 06:24:00,40.4,27.0,30.22,SSE,166,0.0,3.0,59,0.00,,,0.00,weatherlink.com 1.10,2013-01-25 12:24:00,
2013-01-25 06:39:00,40.7,27.0,30.22,SSW,205,2.0,3.0,59,0.00,,,0.00,weatherlink.com 1.10,2013-01-25 12:39:00,
2013-01-25 06:54:00,40.8,28.0,30.22,ESE,117,0.0,5.0,60,0.00,,,0.00,weatherlink.com 1.10,2013-01-25 12:54:00,
2013-01-25 07:09:00,40.9,29.0,30.23,SSE,158,0.0,2.0,63,0.00,,,0.00,weatherlink.com 1.10,2013-01-25 13:09:00,
2013-01-25 07:24:00,40.8,29.0,30.22,ESE,117,0.0,4.0,63,0.00,,,0.00,weatherlink.com 1.10,2013-01-25 13:24:00,
2013-01-25 07:39:00,40.9,29.0,30.21,SE,134,0.0,3.0,64,0.00,,,0.00,weatherlink.com 1.10,2013-01-25 13:39:00,
2013-01-25 07:54:00,40.6,33.0,30.21,East,92,0.0,2.0,74,0.00,,,0.00,weatherlink.com 1.10,2013-01-25 13:54:00,
2013-01-25 08:09:00,40.2,32.0,30.21,NE,54,0.0,4.0,73,0.00,,,0.00,weatherlink.com 1.10,2013-01-25 14:09:00,
2013-01-25 08:24:00,40.1,32.0,30.21,SSE,148,0.0,0.0,72,0.00,,,0.00,weatherlink.com 1.10,2013-01-25 14:24:00,
2013-01-25 08:40:00,40.2,31.0,30.21,SSE,148,0.0,1.0,70,0.00,,,0.00,weatherlink.com 1.10,2013-01-25 14:40:00,
2013-01-25 08:55:00,40.4,31.0,30.20,SE,128,0.0,1.0,70,0.00,,,0.00,weatherlink.com 1.10,2013-01-25 14:55:00,
2013-01-25 09:10:00,40.7,32.0,30.19,East,81,0.0,6.0,70,0.00,,,0.00,weatherlink.com 1.10,2013-01-25 15:10:00,
2013-01-25 09:25:00,41.3,32.0,30.20,East,84,0.0,2.0,70,0.00,,,0.00,weatherlink.com 1.10,2013-01-25 15:25:00,
2013-01-25 09:40:00,41.9,32.0,30.19,SW,223,0.0,3.0,68,0.00,,,0.00,weatherlink.com 1.10,2013-01-25 15:40:00,
2013-01-25 09:55:00,42.5,32.0,30.19,SE,142,1.0,7.0,67,0.00,,,0.00,weatherlink.com 1.10,2013-01-25 15:55:00,
2013-01-25 10:10:00,43.0,32.0,30.18,ESE,123,0.0,3.0,66,0.00,,,0.00,weatherlink.com 1.10,2013-01-25 16:10:00,
2013-01-25 10:25:00,43.6,33.0,30.18,South,169,0.0,2.0,66,0.00,,,0.00,weatherlink.com 1.10,2013-01-25 16:25:00,
2013-01-25 10:40:00,44.3,33.0,30.18,SSW,201,0.0,0.0,65,0.00,,,0.00,weatherlink.com 1.10,2013-01-25 16:40:00,
2013-01-25 10:55:00,44.7,33.0,30.15,SSE,155,0.0,5.0,64,0.00,,,0.00,weatherlink.com 1.10,2013-01-25 16:55:00,
2013-01-25 11:10:00,45.2,34.0,30.16,South,183,1.0,1.0,64,0.00,,,0.00,weatherlink.com 1.10,2013-01-25 17:10:00,
2013-01-25 11:25:00,45.9,34.0,30.15,SSW,201,0.0,3.0,64,0.00,,,0.00,weatherlink.com 1.10,2013-01-25 17:25:00,
2013-01-25 11:40:00,46.4,34.0,30.13,SSW,192,0.0,1.0,63,0.00,,,0.00,weatherlink.com 1.10,2013-01-25 17:40:00,
2013-01-25 11:55:00,46.6,35.0,30.11,SSE,165,1.0,7.0,65,0.00,,,0.00,weatherlink.com 1.10,2013-01-25 17:55:00,
2013-01-25 12:10:00,47.9,36.0,30.12,SSW,206,0.0,7.0,64,0.00,,,0.00,weatherlink.com 1.10,2013-01-25 18:10:00,
2013-01-25 12:25:00,48.3,37.0,30.12,South,179,0.0,1.0,66,0.00,,,0.00,weatherlink.com 1.10,2013-01-25 18:25:00,
2013-01-25 12:40:00,48.2,39.0,30.12,SSW,197,0.0,1.0,71,0.00,,,0.00,weatherlink.com 1.10,2013-01-25 18:40:00,
2013-01-25 12:55:00,48.1,39.0,30.10,South,190,0.0,2.0,72,0.00,,,0.00,weatherlink.com 1.10,2013-01-25 18:55:00,
2013-01-25 13:10:00,48.1,38.0,30.09,WSW,258,0.0,4.0,68,0.00,,,0.00,weatherlink.com 1.10,2013-01-25 19:10:00,
2013-01-25 13:25:00,48.0,37.0,30.09,SSW,211,0.0,2.0,66,0.00,,,0.00,weatherlink.com 1.10,2013-01-25 19:25:00,
2013-01-25 13:40:00,47.6,37.0,30.09,SE,139,0.0,0.0,68,0.00,,,0.00,weatherlink.com 1.10,2013-01-25 19:40:00,
2013-01-25 13:55:00,46.8,36.0,30.08,ESE,123,0.0,1.0,67,0.00,,,0.00,weatherlink.com 1.10,2013-01-25 19:55:00,
2013-01-25 14:10:00,45.4,36.0,30.08,NNW,342,0.0,4.0,70,0.00,,,0.00,weatherlink.com 1.10,2013-01-25 20:10:00,
2013-01-25 14:25:00,44.5,36.0,30.08,SE,134,0.0,2.0,71,0.00,,,0.00,weatherlink.com 1.10,2013-01-25 20:25:00,
2013-01-25 14:40:00,44.1,36.0,30.07,South,170,0.0,1.0,72,0.00,,,0.00,weatherlink.com 1.10,2013-01-25 20:40:00,
2013-01-25 14:55:00,43.8,36.0,30.08,ENE,69,0.0,2.0,74,0.00,,,0.00,weatherlink.com 1.10,2013-01-25 20:55:00,
2013-01-25 15:11:00,43.5,36.0,30.08,ENE,68,0.0,0.0,74,0.00,,,0.00,weatherlink.com 1.10,2013-01-25 21:11:00,
2013-01-25 15:26:00,43.5,35.0,30.07,East,101,0.0,0.0,71,0.00,,,0.00,weatherlink.com 1.10,2013-01-25 21:26:00,
2013-01-25 15:40:00,43.5,35.0,30.07,SSW,194,0.0,3.0,72,0.00,,,0.00,weatherlink.com 1.10,2013-01-25 21:40:00,
2013-01-25 15:56:00,43.4,35.0,30.07,SW,223,0.0,1.0,72,0.00,,,0.00,weatherlink.com 1.10,2013-01-25 21:56:00,
2013-01-25 16:10:00,43.4,35.0,30.07,West,267,0.0,1.0,72,0.00,,,0.00,weatherlink.com 1.10,2013-01-25 22:10:00,
2013-01-25 16:26:00,43.3,35.0,30.07,West,267,0.0,0.0,73,0.00,,,0.00,weatherlink.com 1.10,2013-01-25 22:26:00,
2013-01-25 16:41:00,43.3,36.0,30.08,SSE,150,0.0,0.0,74,0.00,,,0.00,weatherlink.com 1.10,2013-01-25 22:41:00,
2013-01-25 16:55:00,43.4,36.0,30.08,SSE,150,0.0,0.0,75,0.00,,,0.00,weatherlink.com 1.10,2013-01-25 22:55:00,
2013-01-25 17:10:00,43.3,38.0,30.08,SSE,150,0.0,0.0,82,0.00,,,0.00,weatherlink.com 1.10,2013-01-25 23:10:00,
2013-01-25 17:25:00,42.7,39.0,30.10,SSE,150,0.0,0.0,86,0.00,,,0.00,weatherlink.com 1.10,2013-01-25 23:25:00,
2013-01-25 17:40:00,42.5,39.0,30.10,East,86,0.0,0.0,88,0.00,,,0.00,weatherlink.com 1.10,2013-01-25 23:40:00,
2013-01-25 17:55:00,42.4,39.0,30.11,NNW,332,0.0,2.0,87,0.00,,,0.00,weatherlink.com 1.10,2013-01-25 23:55:00,
2013-01-25 18:10:00,41.9,39.0,30.11,ENE,72,0.0,0.0,88,0.01,,,0.01,weatherlink.com 1.10,2013-01-26 00:10:00,
2013-01-25 18:25:00,41.4,39.0,30.12,ENE,62,0.0,0.0,90,0.01,,,0.01,weatherlink.com 1.10,2013-01-26 00:25:00,
2013-01-25 18:41:00,41.1,39.0,30.12,NE,53,0.0,0.0,91,0.01,,,0.01,weatherlink.com 1.10,2013-01-26 00:41:00,
2013-01-25 18:56:00,40.9,39.0,30.12,NE,40,0.0,0.0,91,0.01,,,0.01,weatherlink.com 1.10,2013-01-26 00:56:00,
2013-01-25 19:11:00,40.7,39.0,30.13,North,355,0.0,1.0,92,0.01,,,0.02,weatherlink.com 1.10,2013-01-26 01:11:00,
2013-01-25 19:26:00,40.7,39.0,30.13,North,355,0.0,0.0,92,0.01,,,0.02,weatherlink.com 1.10,2013-01-26 01:26:00,
2013-01-25 19:41:00,40.3,38.0,30.13,NNW,337,0.0,0.0,92,0.02,,,0.03,weatherlink.com 1.10,2013-01-26 01:41:00,
2013-01-25 19:56:00,40.0,38.0,30.12,NNW,337,0.0,0.0,92,0.02,,,0.03,weatherlink.com 1.10,2013-01-26 01:56:00,
2013-01-25 20:11:00,39.8,38.0,30.13,NW,313,0.0,1.0,93,0.01,,,0.03,weatherlink.com 1.10,2013-01-26 02:11:00,
2013-01-25 20:26:00,39.6,38.0,30.13,SSW,198,0.0,1.0,93,0.02,,,0.04,weatherlink.com 1.10,2013-01-26 02:26:00,
2013-01-25 20:41:00,39.5,38.0,30.13,SSE,164,0.0,0.0,93,0.01,,,0.04,weatherlink.com 1.10,2013-01-26 02:41:00,
2013-01-25 20:56:00,39.3,38.0,30.14,SSE,164,0.0,0.0,93,0.01,,,0.04,weatherlink.com 1.10,2013-01-26 02:56:00,
2013-01-25 21:11:00,39.2,37.0,30.14,SSE,164,0.0,0.0,93,0.01,,,0.04,weatherlink.com 1.10,2013-01-26 03:11:00,
2013-01-25 21:26:00,39.3,38.0,30.14,SSE,164,0.0,0.0,94,0.00,,,0.04,weatherlink.com 1.10,2013-01-26 03:26:00,
2013-01-25 21:41:00,39.5,38.0,30.14,SSE,164,0.0,0.0,94,0.00,,,0.04,weatherlink.com 1.10,2013-01-26 03:41:00,
2013-01-25 21:56:00,39.5,38.0,30.14,SSE,164,0.0,0.0,94,0.00,,,0.04,weatherlink.com 1.10,2013-01-26 03:56:00,
2013-01-25 22:11:00,39.5,38.0,30.14,SSE,164,0.0,0.0,94,0.00,,,0.04,weatherlink.com 1.10,2013-01-26 04:11:00,
2013-01-25 22:26:00,39.4,38.0,30.15,South,182,0.0,1.0,94,0.00,,,0.04,weatherlink.com 1.10,2013-01-26 04:26:00,
2013-01-25 22:41:00,39.3,38.0,30.15,South,182,0.0,0.0,94,0.00,,,0.04,weatherlink.com 1.10,2013-01-26 04:41:00,
2013-01-25 22:56:00,39.3,38.0,30.15,South,182,0.0,0.0,94,0.00,,,0.04,weatherlink.com 1.10,2013-01-26 04:56:00,
2013-01-25 23:11:00,39.5,38.0,30.15,South,182,0.0,0.0,95,0.00,,,0.04,weatherlink.com 1.10,2013-01-26 05:11:00,
2013-01-25 23:26:00,39.8,39.0,30.14,South,182,0.0,0.0,95,0.00,,,0.04,weatherlink.com 1.10,2013-01-26 05:26:00,
2013-01-25 23:41:00,40.1,39.0,30.14,South,182,0.0,0.0,95,0.00,,,0.04,weatherlink.com 1.10,2013-01-26 05:41:00,
2013-01-25 23:56:00,40.2,39.0,30.15,South,182,0.0,0.0,95,0.00,,,0.04,weatherlink.com 1.10,2013-01-26 05:56:00,